sensor_id;sensor_type;location;lat;lon;timestamp;temperature;humidity
42841;DHT22;28491;46.898;7.660;2023-02-28T00:00:00;-1.50;1.00
42841;DHT22;28491;46.898;7.660;2023-02-28T00:02:25;-1.50;1.00
42841;DHT22;28491;46.898;7.660;2023-02-28T00:04:51;-1.50;1.00
42841;DHT22;28491;46.898;7.660;2023-02-28T00:07:26;-1.50;1.00
42841;DHT22;28491;46.898;7.660;2023-02-28T00:09:53;-1.60;1.00
42841;DHT22;28491;46.898;7.660;2023-02-28T00:12:18;-1.60;1.00
42841;DHT22;28491;46.898;7.660;2023-02-28T00:14:44;-1.60;1.00
42841;DHT22;28491;46.898;7.660;2023-02-28T00:17:09;-1.60;1.00
42841;DHT22;28491;46.898;7.660;2023-02-28T00:19:35;-1.60;1.00
42841;DHT22;28491;46.898;7.660;2023-02-28T00:22:00;-1.60;1.00
42841;DHT22;28491;46.898;7.660;2023-02-28T00:24:26;-1.70;1.00
42841;DHT22;28491;46.898;7.660;2023-02-28T00:26:51;-1.60;1.00
42841;DHT22;28491;46.898;7.660;2023-02-28T00:29:17;-1.60;1.00
42841;DHT22;28491;46.898;7.660;2023-02-28T00:31:42;-1.60;1.00
42841;DHT22;28491;46.898;7.660;2023-02-28T00:34:08;-1.60;1.00
42841;DHT22;28491;46.898;7.660;2023-02-28T00:36:33;-1.60;1.00
42841;DHT22;28491;46.898;7.660;2023-02-28T00:38:59;-1.60;1.00
42841;DHT22;28491;46.898;7.660;2023-02-28T00:41:24;-1.60;1.00
42841;DHT22;28491;46.898;7.660;2023-02-28T00:43:50;-1.60;1.00
42841;DHT22;28491;46.898;7.660;2023-02-28T00:46:15;-1.60;1.00
42841;DHT22;28491;46.898;7.660;2023-02-28T00:48:41;-1.60;1.00
42841;DHT22;28491;46.898;7.660;2023-02-28T00:51:06;-1.70;1.00
42841;DHT22;28491;46.898;7.660;2023-02-28T00:53:33;-1.60;1.00
42841;DHT22;28491;46.898;7.660;2023-02-28T00:55:58;-1.60;1.00
42841;DHT22;28491;46.898;7.660;2023-02-28T00:58:24;-1.60;1.00
42841;DHT22;28491;46.898;7.660;2023-02-28T01:00:51;-1.60;1.00
42841;DHT22;28491;46.898;7.660;2023-02-28T01:03:18;-1.60;1.00
42841;DHT22;28491;46.898;7.660;2023-02-28T01:05:45;-1.60;1.00
42841;DHT22;28491;46.898;7.660;2023-02-28T01:08:10;-1.60;1.00
42841;DHT22;28491;46.898;7.660;2023-02-28T01:10:36;-1.50;1.00
42841;DHT22;28491;46.898;7.660;2023-02-28T01:13:02;-1.60;1.00
42841;DHT22;28491;46.898;7.660;2023-02-28T01:15:28;-1.60;1.00
42841;DHT22;28491;46.898;7.660;2023-02-28T01:17:54;-1.60;1.00
42841;DHT22;28491;46.898;7.660;2023-02-28T01:20:19;-1.50;1.00
42841;DHT22;28491;46.898;7.660;2023-02-28T01:22:45;-1.50;1.00
42841;DHT22;28491;46.898;7.660;2023-02-28T01:25:12;-1.60;1.00
42841;DHT22;28491;46.898;7.660;2023-02-28T01:27:37;-1.50;1.00
42841;DHT22;28491;46.898;7.660;2023-02-28T01:30:05;-1.50;1.00
42841;DHT22;28491;46.898;7.660;2023-02-28T01:32:31;-1.50;1.00
42841;DHT22;28491;46.898;7.660;2023-02-28T01:34:57;-1.50;1.00
42841;DHT22;28491;46.898;7.660;2023-02-28T01:37:22;-1.60;1.00
42841;DHT22;28491;46.898;7.660;2023-02-28T01:39:48;-1.50;1.00
42841;DHT22;28491;46.898;7.660;2023-02-28T01:42:13;-1.50;1.00
42841;DHT22;28491;46.898;7.660;2023-02-28T01:47:58;-1.50;1.00
42841;DHT22;28491;46.898;7.660;2023-02-28T01:50:27;-1.50;1.00
42841;DHT22;28491;46.898;7.660;2023-02-28T01:52:56;-1.60;1.00
42841;DHT22;28491;46.898;7.660;2023-02-28T01:55:24;-1.50;1.00
42841;DHT22;28491;46.898;7.660;2023-02-28T01:57:56;-1.60;1.00
42841;DHT22;28491;46.898;7.660;2023-02-28T02:00:24;-1.60;1.00
42841;DHT22;28491;46.898;7.660;2023-02-28T02:02:55;-1.60;1.00
42841;DHT22;28491;46.898;7.660;2023-02-28T02:05:23;-1.50;1.00
42841;DHT22;28491;46.898;7.660;2023-02-28T02:07:54;-1.60;1.00
42841;DHT22;28491;46.898;7.660;2023-02-28T02:10:48;-1.60;1.00
42841;DHT22;28491;46.898;7.660;2023-02-28T02:22:07;-1.50;1.00
42841;DHT22;28491;46.898;7.660;2023-02-28T02:34:00;-1.50;1.00
42841;DHT22;28491;46.898;7.660;2023-02-28T02:36:33;-1.50;1.00
42841;DHT22;28491;46.898;7.660;2023-02-28T02:41:45;-1.50;1.00
42841;DHT22;28491;46.898;7.660;2023-02-28T02:44:27;-1.50;1.00
42841;DHT22;28491;46.898;7.660;2023-02-28T02:46:59;-1.60;1.00
42841;DHT22;28491;46.898;7.660;2023-02-28T02:49:30;-1.50;1.00
42841;DHT22;28491;46.898;7.660;2023-02-28T02:51:58;-1.50;1.00
42841;DHT22;28491;46.898;7.660;2023-02-28T02:54:38;-1.50;1.00
42841;DHT22;28491;46.898;7.660;2023-02-28T02:57:21;-1.50;1.00
42841;DHT22;28491;46.898;7.660;2023-02-28T02:59:48;-1.60;1.00
42841;DHT22;28491;46.898;7.660;2023-02-28T03:02:16;-1.50;1.00
42841;DHT22;28491;46.898;7.660;2023-02-28T03:04:46;-1.60;1.00
42841;DHT22;28491;46.898;7.660;2023-02-28T03:07:13;-1.60;1.00
42841;DHT22;28491;46.898;7.660;2023-02-28T03:09:39;-1.60;1.00
42841;DHT22;28491;46.898;7.660;2023-02-28T03:12:09;-1.60;1.00
42841;DHT22;28491;46.898;7.660;2023-02-28T03:27:49;-1.60;1.00
42841;DHT22;28491;46.898;7.660;2023-02-28T03:30:51;-1.60;1.00
42841;DHT22;28491;46.898;7.660;2023-02-28T03:33:27;-1.70;1.00
42841;DHT22;28491;46.898;7.660;2023-02-28T03:35:59;-1.70;1.00
42841;DHT22;28491;46.898;7.660;2023-02-28T03:38:31;-1.60;1.00
42841;DHT22;28491;46.898;7.660;2023-02-28T03:41:09;-1.70;1.00
42841;DHT22;28491;46.898;7.660;2023-02-28T03:43:41;-1.70;1.00
42841;DHT22;28491;46.898;7.660;2023-02-28T03:46:11;-1.60;1.00
42841;DHT22;28491;46.898;7.660;2023-02-28T03:48:42;-1.70;1.00
42841;DHT22;28491;46.898;7.660;2023-02-28T03:51:12;-1.70;1.00
42841;DHT22;28491;46.898;7.660;2023-02-28T03:53:48;-1.70;1.00
42841;DHT22;28491;46.898;7.660;2023-02-28T03:56:22;-1.70;1.00
42841;DHT22;28491;46.898;7.660;2023-02-28T03:59:10;-1.60;1.00
42841;DHT22;28491;46.898;7.660;2023-02-28T04:01:38;-1.70;1.00
42841;DHT22;28491;46.898;7.660;2023-02-28T04:04:07;-1.70;1.00
42841;DHT22;28491;46.898;7.660;2023-02-28T04:06:33;-1.70;1.00
42841;DHT22;28491;46.898;7.660;2023-02-28T04:08:59;-1.70;1.00
42841;DHT22;28491;46.898;7.660;2023-02-28T04:14:04;-1.70;1.00
42841;DHT22;28491;46.898;7.660;2023-02-28T04:16:34;-1.80;1.00
42841;DHT22;28491;46.898;7.660;2023-02-28T04:19:00;-1.80;1.00
42841;DHT22;28491;46.898;7.660;2023-02-28T04:21:39;-1.80;1.00
42841;DHT22;28491;46.898;7.660;2023-02-28T04:24:06;-1.90;1.00
42841;DHT22;28491;46.898;7.660;2023-02-28T04:26:33;-1.80;1.00
42841;DHT22;28491;46.898;7.660;2023-02-28T04:29:00;-1.90;1.00
42841;DHT22;28491;46.898;7.660;2023-02-28T04:31:26;-1.90;1.00
42841;DHT22;28491;46.898;7.660;2023-02-28T04:33:51;-1.90;1.00
42841;DHT22;28491;46.898;7.660;2023-02-28T04:36:17;-1.90;1.00
42841;DHT22;28491;46.898;7.660;2023-02-28T04:38:44;-1.90;1.00
42841;DHT22;28491;46.898;7.660;2023-02-28T04:41:10;-1.80;1.00
42841;DHT22;28491;46.898;7.660;2023-02-28T04:43:36;-1.80;1.00
42841;DHT22;28491;46.898;7.660;2023-02-28T04:46:03;-1.80;1.00
42841;DHT22;28491;46.898;7.660;2023-02-28T04:48:31;-1.80;1.00
42841;DHT22;28491;46.898;7.660;2023-02-28T04:51:00;-1.80;1.00
42841;DHT22;28491;46.898;7.660;2023-02-28T04:53:27;-1.70;1.00
42841;DHT22;28491;46.898;7.660;2023-02-28T04:55:54;-1.70;1.00
42841;DHT22;28491;46.898;7.660;2023-02-28T04:58:20;-1.70;1.00
42841;DHT22;28491;46.898;7.660;2023-02-28T05:00:48;-1.70;1.00
42841;DHT22;28491;46.898;7.660;2023-02-28T05:03:13;-1.70;1.00
42841;DHT22;28491;46.898;7.660;2023-02-28T05:05:39;-1.60;1.00
42841;DHT22;28491;46.898;7.660;2023-02-28T05:08:05;-1.60;1.00
42841;DHT22;28491;46.898;7.660;2023-02-28T05:10:31;-1.60;1.00
42841;DHT22;28491;46.898;7.660;2023-02-28T05:12:56;-1.60;1.00
42841;DHT22;28491;46.898;7.660;2023-02-28T05:15:22;-1.60;1.00
42841;DHT22;28491;46.898;7.660;2023-02-28T05:17:47;-1.60;1.00
42841;DHT22;28491;46.898;7.660;2023-02-28T05:20:13;-1.60;1.00
42841;DHT22;28491;46.898;7.660;2023-02-28T05:22:39;-1.60;1.00
42841;DHT22;28491;46.898;7.660;2023-02-28T05:25:05;-1.60;1.00
42841;DHT22;28491;46.898;7.660;2023-02-28T05:27:31;-1.60;1.00
42841;DHT22;28491;46.898;7.660;2023-02-28T05:29:56;-1.60;1.00
42841;DHT22;28491;46.898;7.660;2023-02-28T05:32:22;-1.60;1.00
42841;DHT22;28491;46.898;7.660;2023-02-28T05:34:47;-1.60;1.00
42841;DHT22;28491;46.898;7.660;2023-02-28T05:37:14;-1.60;1.00
42841;DHT22;28491;46.898;7.660;2023-02-28T05:39:41;-1.60;1.00
42841;DHT22;28491;46.898;7.660;2023-02-28T05:42:07;-1.50;1.00
42841;DHT22;28491;46.898;7.660;2023-02-28T05:44:33;-1.60;1.00
42841;DHT22;28491;46.898;7.660;2023-02-28T05:46:59;-1.60;1.00
42841;DHT22;28491;46.898;7.660;2023-02-28T05:49:24;-1.60;1.00
42841;DHT22;28491;46.898;7.660;2023-02-28T05:51:50;-1.60;1.00
42841;DHT22;28491;46.898;7.660;2023-02-28T05:54:15;-1.60;1.00
42841;DHT22;28491;46.898;7.660;2023-02-28T05:56:41;-1.60;1.00
42841;DHT22;28491;46.898;7.660;2023-02-28T05:59:09;-1.60;1.00
42841;DHT22;28491;46.898;7.660;2023-02-28T06:04:07;-1.50;1.00
42841;DHT22;28491;46.898;7.660;2023-02-28T06:06:33;-1.60;1.00
42841;DHT22;28491;46.898;7.660;2023-02-28T06:09:03;-1.60;1.00
42841;DHT22;28491;46.898;7.660;2023-02-28T06:11:28;-1.50;1.00
42841;DHT22;28491;46.898;7.660;2023-02-28T06:13:57;-1.50;1.00
42841;DHT22;28491;46.898;7.660;2023-02-28T06:16:25;-1.50;1.00
42841;DHT22;28491;46.898;7.660;2023-02-28T06:18:51;-1.50;1.00
42841;DHT22;28491;46.898;7.660;2023-02-28T06:21:18;-1.50;1.00
42841;DHT22;28491;46.898;7.660;2023-02-28T06:23:44;-1.50;1.00
42841;DHT22;28491;46.898;7.660;2023-02-28T06:26:10;-1.50;1.00
42841;DHT22;28491;46.898;7.660;2023-02-28T06:28:36;-1.50;1.00
42841;DHT22;28491;46.898;7.660;2023-02-28T06:31:14;-1.50;1.00
42841;DHT22;28491;46.898;7.660;2023-02-28T06:33:40;-1.50;1.00
42841;DHT22;28491;46.898;7.660;2023-02-28T06:36:07;-1.40;1.00
42841;DHT22;28491;46.898;7.660;2023-02-28T06:38:33;-1.40;1.00
42841;DHT22;28491;46.898;7.660;2023-02-28T06:40:59;-1.50;1.00
42841;DHT22;28491;46.898;7.660;2023-02-28T06:43:28;-1.40;1.00
42841;DHT22;28491;46.898;7.660;2023-02-28T06:45:55;-1.50;1.00
42841;DHT22;28491;46.898;7.660;2023-02-28T06:48:21;-1.40;1.00
42841;DHT22;28491;46.898;7.660;2023-02-28T06:50:47;-1.50;1.00
42841;DHT22;28491;46.898;7.660;2023-02-28T06:53:12;-1.40;1.00
42841;DHT22;28491;46.898;7.660;2023-02-28T06:55:39;-1.40;1.00
42841;DHT22;28491;46.898;7.660;2023-02-28T06:58:05;-1.50;1.00
42841;DHT22;28491;46.898;7.660;2023-02-28T07:00:41;-1.40;1.00
42841;DHT22;28491;46.898;7.660;2023-02-28T07:03:07;-1.40;1.00
42841;DHT22;28491;46.898;7.660;2023-02-28T07:05:35;-1.40;1.00
42841;DHT22;28491;46.898;7.660;2023-02-28T07:08:01;-1.40;1.00
42841;DHT22;28491;46.898;7.660;2023-02-28T07:10:27;-1.30;1.00
42841;DHT22;28491;46.898;7.660;2023-02-28T07:12:52;-1.30;1.00
42841;DHT22;28491;46.898;7.660;2023-02-28T07:15:18;-1.40;1.00
42841;DHT22;28491;46.898;7.660;2023-02-28T07:17:43;-1.30;1.00
42841;DHT22;28491;46.898;7.660;2023-02-28T07:20:09;-1.30;1.00
42841;DHT22;28491;46.898;7.660;2023-02-28T07:22:35;-1.30;1.00
42841;DHT22;28491;46.898;7.660;2023-02-28T07:25:00;-1.30;1.00
42841;DHT22;28491;46.898;7.660;2023-02-28T07:27:26;-1.30;1.00
42841;DHT22;28491;46.898;7.660;2023-02-28T07:29:53;-1.30;1.00
42841;DHT22;28491;46.898;7.660;2023-02-28T07:32:19;-1.20;1.00
42841;DHT22;28491;46.898;7.660;2023-02-28T07:34:45;-1.20;1.00
42841;DHT22;28491;46.898;7.660;2023-02-28T07:37:10;-1.20;1.00
42841;DHT22;28491;46.898;7.660;2023-02-28T07:39:36;-1.20;1.00
42841;DHT22;28491;46.898;7.660;2023-02-28T07:42:05;-1.20;1.00
42841;DHT22;28491;46.898;7.660;2023-02-28T07:44:31;-1.10;1.00
42841;DHT22;28491;46.898;7.660;2023-02-28T07:46:57;-1.10;1.00
42841;DHT22;28491;46.898;7.660;2023-02-28T07:49:23;-1.10;1.00
42841;DHT22;28491;46.898;7.660;2023-02-28T07:51:48;-1.10;1.00
42841;DHT22;28491;46.898;7.660;2023-02-28T07:54:14;-1.00;1.00
42841;DHT22;28491;46.898;7.660;2023-02-28T07:56:39;-0.90;1.00
42841;DHT22;28491;46.898;7.660;2023-02-28T07:59:05;-0.90;1.00
42841;DHT22;28491;46.898;7.660;2023-02-28T08:01:30;-0.90;1.00
42841;DHT22;28491;46.898;7.660;2023-02-28T08:03:56;-0.90;1.00
42841;DHT22;28491;46.898;7.660;2023-02-28T08:06:23;-0.90;1.00
42841;DHT22;28491;46.898;7.660;2023-02-28T08:08:50;-0.80;1.00
42841;DHT22;28491;46.898;7.660;2023-02-28T08:11:16;-0.80;1.00
42841;DHT22;28491;46.898;7.660;2023-02-28T08:13:42;-0.80;1.00
42841;DHT22;28491;46.898;7.660;2023-02-28T08:16:11;-0.70;1.00
42841;DHT22;28491;46.898;7.660;2023-02-28T08:18:36;-0.60;1.00
42841;DHT22;28491;46.898;7.660;2023-02-28T08:21:09;-0.60;1.00
42841;DHT22;28491;46.898;7.660;2023-02-28T08:23:35;-0.50;1.00
42841;DHT22;28491;46.898;7.660;2023-02-28T08:26:01;-0.40;1.00
42841;DHT22;28491;46.898;7.660;2023-02-28T08:28:27;-0.30;1.00
42841;DHT22;28491;46.898;7.660;2023-02-28T08:30:53;-0.40;1.00
42841;DHT22;28491;46.898;7.660;2023-02-28T08:33:19;-0.30;1.00
42841;DHT22;28491;46.898;7.660;2023-02-28T08:35:45;-0.40;1.00
42841;DHT22;28491;46.898;7.660;2023-02-28T08:38:10;-0.30;1.00
42841;DHT22;28491;46.898;7.660;2023-02-28T08:40:36;0.00;1.00
42841;DHT22;28491;46.898;7.660;2023-02-28T08:43:01;0.10;1.00
42841;DHT22;28491;46.898;7.660;2023-02-28T08:45:27;0.40;1.00
42841;DHT22;28491;46.898;7.660;2023-02-28T08:47:54;0.50;1.00
42841;DHT22;28491;46.898;7.660;2023-02-28T08:50:21;0.30;1.00
42841;DHT22;28491;46.898;7.660;2023-02-28T08:52:46;0.10;1.00
42841;DHT22;28491;46.898;7.660;2023-02-28T08:55:12;0.10;1.00
42841;DHT22;28491;46.898;7.660;2023-02-28T08:57:38;0.20;1.00
42841;DHT22;28491;46.898;7.660;2023-02-28T09:00:04;0.20;1.00
42841;DHT22;28491;46.898;7.660;2023-02-28T09:02:31;0.20;1.00
42841;DHT22;28491;46.898;7.660;2023-02-28T09:04:57;0.20;1.00
42841;DHT22;28491;46.898;7.660;2023-02-28T09:07:23;0.30;1.00
42841;DHT22;28491;46.898;7.660;2023-02-28T09:09:49;0.40;1.00
42841;DHT22;28491;46.898;7.660;2023-02-28T09:12:24;0.40;1.00
42841;DHT22;28491;46.898;7.660;2023-02-28T09:14:51;0.40;1.00
42841;DHT22;28491;46.898;7.660;2023-02-28T09:17:17;0.40;1.00
42841;DHT22;28491;46.898;7.660;2023-02-28T09:19:43;0.40;1.00
42841;DHT22;28491;46.898;7.660;2023-02-28T09:22:09;0.40;1.00
42841;DHT22;28491;46.898;7.660;2023-02-28T09:24:36;0.40;1.00
42841;DHT22;28491;46.898;7.660;2023-02-28T09:27:02;0.50;1.00
42841;DHT22;28491;46.898;7.660;2023-02-28T09:29:28;0.50;1.00
42841;DHT22;28491;46.898;7.660;2023-02-28T09:31:53;0.50;1.00
42841;DHT22;28491;46.898;7.660;2023-02-28T09:34:19;0.40;1.00
42841;DHT22;28491;46.898;7.660;2023-02-28T09:39:57;0.70;1.00
42841;DHT22;28491;46.898;7.660;2023-02-28T09:42:31;0.70;1.00
42841;DHT22;28491;46.898;7.660;2023-02-28T09:44:58;0.60;1.00
42841;DHT22;28491;46.898;7.660;2023-02-28T09:47:36;0.60;1.00
42841;DHT22;28491;46.898;7.660;2023-02-28T09:52:41;0.50;1.00
42841;DHT22;28491;46.898;7.660;2023-02-28T09:55:20;0.70;1.00
42841;DHT22;28491;46.898;7.660;2023-02-28T09:57:49;0.70;1.00
42841;DHT22;28491;46.898;7.660;2023-02-28T10:03:06;0.70;1.00
42841;DHT22;28491;46.898;7.660;2023-02-28T10:05:41;1.00;1.00
42841;DHT22;28491;46.898;7.660;2023-02-28T10:08:22;1.10;1.00
42841;DHT22;28491;46.898;7.660;2023-02-28T10:10:53;1.50;1.00
42841;DHT22;28491;46.898;7.660;2023-02-28T10:13:34;1.70;1.00
42841;DHT22;28491;46.898;7.660;2023-02-28T10:16:11;1.80;1.00
42841;DHT22;28491;46.898;7.660;2023-02-28T10:19:02;1.90;1.00
42841;DHT22;28491;46.898;7.660;2023-02-28T10:21:36;1.90;1.00
42841;DHT22;28491;46.898;7.660;2023-02-28T10:26:43;2.10;1.00
42841;DHT22;28491;46.898;7.660;2023-02-28T10:29:10;1.90;1.00
42841;DHT22;28491;46.898;7.660;2023-02-28T10:31:36;2.00;1.00
42841;DHT22;28491;46.898;7.660;2023-02-28T10:34:01;1.90;1.00
42841;DHT22;28491;46.898;7.660;2023-02-28T10:36:28;1.80;1.00
42841;DHT22;28491;46.898;7.660;2023-02-28T10:38:54;1.80;1.00
42841;DHT22;28491;46.898;7.660;2023-02-28T10:41:31;1.80;1.00
42841;DHT22;28491;46.898;7.660;2023-02-28T10:44:30;1.90;1.00
42841;DHT22;28491;46.898;7.660;2023-02-28T10:46:56;1.90;1.00
42841;DHT22;28491;46.898;7.660;2023-02-28T10:49:24;1.70;1.00
42841;DHT22;28491;46.898;7.660;2023-02-28T10:51:57;1.90;1.00
42841;DHT22;28491;46.898;7.660;2023-02-28T10:54:34;2.20;1.00
42841;DHT22;28491;46.898;7.660;2023-02-28T10:57:20;2.30;1.00
42841;DHT22;28491;46.898;7.660;2023-02-28T10:59:51;2.10;1.00
42841;DHT22;28491;46.898;7.660;2023-02-28T11:02:35;2.30;1.00
42841;DHT22;28491;46.898;7.660;2023-02-28T11:05:01;2.30;1.00
42841;DHT22;28491;46.898;7.660;2023-02-28T11:07:27;2.40;1.00
42841;DHT22;28491;46.898;7.660;2023-02-28T11:09:57;2.30;1.00
42841;DHT22;28491;46.898;7.660;2023-02-28T11:12:34;2.40;1.00
42841;DHT22;28491;46.898;7.660;2023-02-28T11:15:05;2.20;1.00
42841;DHT22;28491;46.898;7.660;2023-02-28T11:17:32;2.50;1.00
42841;DHT22;28491;46.898;7.660;2023-02-28T11:20:05;2.30;1.00
42841;DHT22;28491;46.898;7.660;2023-02-28T11:22:37;2.90;1.00
42841;DHT22;28491;46.898;7.660;2023-02-28T11:25:19;3.40;1.00
42841;DHT22;28491;46.898;7.660;2023-02-28T11:27:48;3.80;1.00
42841;DHT22;28491;46.898;7.660;2023-02-28T11:30:37;3.80;1.00
42841;DHT22;28491;46.898;7.660;2023-02-28T11:33:26;3.90;1.00
42841;DHT22;28491;46.898;7.660;2023-02-28T11:35:53;4.20;1.00
42841;DHT22;28491;46.898;7.660;2023-02-28T11:38:20;4.40;1.00
42841;DHT22;28491;46.898;7.660;2023-02-28T11:51:21;4.20;1.00
42841;DHT22;28491;46.898;7.660;2023-02-28T11:54:20;4.40;1.00
42841;DHT22;28491;46.898;7.660;2023-02-28T11:56:57;4.50;1.00
42841;DHT22;28491;46.898;7.660;2023-02-28T11:59:52;3.90;1.00
42841;DHT22;28491;46.898;7.660;2023-02-28T12:02:26;4.00;1.00
42841;DHT22;28491;46.898;7.660;2023-02-28T12:05:19;3.90;1.00
42841;DHT22;28491;46.898;7.660;2023-02-28T12:10:29;4.20;1.00
42841;DHT22;28491;46.898;7.660;2023-02-28T12:26:45;4.10;1.00
42841;DHT22;28491;46.898;7.660;2023-02-28T12:29:39;4.30;1.00
42841;DHT22;28491;46.898;7.660;2023-02-28T12:32:21;4.00;1.00
42841;DHT22;28491;46.898;7.660;2023-02-28T12:34:56;3.70;1.00
42841;DHT22;28491;46.898;7.660;2023-02-28T12:37:36;3.90;1.00
42841;DHT22;28491;46.898;7.660;2023-02-28T12:40:10;3.90;1.00
42841;DHT22;28491;46.898;7.660;2023-02-28T12:42:40;4.00;1.00
42841;DHT22;28491;46.898;7.660;2023-02-28T12:45:24;4.10;1.00
42841;DHT22;28491;46.898;7.660;2023-02-28T12:47:55;3.90;1.00
42841;DHT22;28491;46.898;7.660;2023-02-28T12:50:23;4.40;1.00
42841;DHT22;28491;46.898;7.660;2023-02-28T13:01:32;3.70;1.00
42841;DHT22;28491;46.898;7.660;2023-02-28T13:04:34;4.10;1.00
42841;DHT22;28491;46.898;7.660;2023-02-28T13:10:02;4.40;1.00
42841;DHT22;28491;46.898;7.660;2023-02-28T13:12:28;4.00;1.00
42841;DHT22;28491;46.898;7.660;2023-02-28T13:15:27;4.40;1.00
42841;DHT22;28491;46.898;7.660;2023-02-28T13:18:00;4.30;1.00
42841;DHT22;28491;46.898;7.660;2023-02-28T13:20:29;3.60;1.00
42841;DHT22;28491;46.898;7.660;2023-02-28T13:22:57;3.80;1.00
42841;DHT22;28491;46.898;7.660;2023-02-28T13:27:54;3.90;1.00
42841;DHT22;28491;46.898;7.660;2023-02-28T13:35:46;4.30;1.00
42841;DHT22;28491;46.898;7.660;2023-02-28T13:38:24;4.00;1.00
42841;DHT22;28491;46.898;7.660;2023-02-28T13:40:50;3.90;1.00
42841;DHT22;28491;46.898;7.660;2023-02-28T13:43:17;4.40;1.00
42841;DHT22;28491;46.898;7.660;2023-02-28T13:46:05;4.00;1.00
42841;DHT22;28491;46.898;7.660;2023-02-28T13:48:31;3.90;1.00
42841;DHT22;28491;46.898;7.660;2023-02-28T13:50:57;3.90;1.00
42841;DHT22;28491;46.898;7.660;2023-02-28T13:53:38;3.90;1.00
42841;DHT22;28491;46.898;7.660;2023-02-28T13:56:41;4.10;1.00
42841;DHT22;28491;46.898;7.660;2023-02-28T13:59:34;3.90;1.00
42841;DHT22;28491;46.898;7.660;2023-02-28T14:02:32;3.70;1.00
42841;DHT22;28491;46.898;7.660;2023-02-28T14:05:17;3.70;1.00
42841;DHT22;28491;46.898;7.660;2023-02-28T14:07:57;3.60;1.00
42841;DHT22;28491;46.898;7.660;2023-02-28T14:10:44;3.80;1.00
42841;DHT22;28491;46.898;7.660;2023-02-28T14:13:37;3.70;1.00
42841;DHT22;28491;46.898;7.660;2023-02-28T14:16:06;3.50;1.00
42841;DHT22;28491;46.898;7.660;2023-02-28T14:18:36;3.60;1.00
42841;DHT22;28491;46.898;7.660;2023-02-28T14:23:39;3.50;1.00
42841;DHT22;28491;46.898;7.660;2023-02-28T14:31:34;3.80;1.00
42841;DHT22;28491;46.898;7.660;2023-02-28T14:36:44;3.40;1.00
42841;DHT22;28491;46.898;7.660;2023-02-28T14:39:13;3.10;1.00
42841;DHT22;28491;46.898;7.660;2023-02-28T14:41:41;2.80;1.00
42841;DHT22;28491;46.898;7.660;2023-02-28T14:44:22;2.90;1.00
42841;DHT22;28491;46.898;7.660;2023-02-28T14:47:01;3.00;1.00
42841;DHT22;28491;46.898;7.660;2023-02-28T14:49:35;3.20;1.00
42841;DHT22;28491;46.898;7.660;2023-02-28T14:52:17;3.20;1.00
42841;DHT22;28491;46.898;7.660;2023-02-28T14:54:44;3.20;1.00
42841;DHT22;28491;46.898;7.660;2023-02-28T14:57:24;2.80;1.00
42841;DHT22;28491;46.898;7.660;2023-02-28T15:00:21;2.40;1.00
42841;DHT22;28491;46.898;7.660;2023-02-28T15:02:47;2.20;1.00
42841;DHT22;28491;46.898;7.660;2023-02-28T15:07:38;2.10;1.00
42841;DHT22;28491;46.898;7.660;2023-02-28T15:10:27;2.00;1.00
42841;DHT22;28491;46.898;7.660;2023-02-28T15:13:02;2.00;1.00
42841;DHT22;28491;46.898;7.660;2023-02-28T15:15:52;1.80;1.00
42841;DHT22;28491;46.898;7.660;2023-02-28T15:18:39;1.70;1.00
42841;DHT22;28491;46.898;7.660;2023-02-28T15:21:22;1.80;1.00
42841;DHT22;28491;46.898;7.660;2023-02-28T15:26:26;2.10;1.00
42841;DHT22;28491;46.898;7.660;2023-02-28T15:28:58;2.10;1.00
42841;DHT22;28491;46.898;7.660;2023-02-28T15:31:32;1.90;1.00
42841;DHT22;28491;46.898;7.660;2023-02-28T15:34:03;2.00;1.00
42841;DHT22;28491;46.898;7.660;2023-02-28T15:36:30;1.90;1.00
42841;DHT22;28491;46.898;7.660;2023-02-28T15:38:59;1.80;1.00
42841;DHT22;28491;46.898;7.660;2023-02-28T15:41:36;1.70;1.00
42841;DHT22;28491;46.898;7.660;2023-02-28T15:44:26;1.70;1.00
42841;DHT22;28491;46.898;7.660;2023-02-28T15:47:15;1.80;1.00
42841;DHT22;28491;46.898;7.660;2023-02-28T15:49:49;1.70;1.00
42841;DHT22;28491;46.898;7.660;2023-02-28T15:52:39;1.80;1.00
42841;DHT22;28491;46.898;7.660;2023-02-28T15:55:19;1.80;1.00
42841;DHT22;28491;46.898;7.660;2023-02-28T15:57:49;1.80;1.00
42841;DHT22;28491;46.898;7.660;2023-02-28T16:00:19;1.60;1.00
42841;DHT22;28491;46.898;7.660;2023-02-28T16:02:45;1.60;1.00
42841;DHT22;28491;46.898;7.660;2023-02-28T16:07:40;1.60;1.00
42841;DHT22;28491;46.898;7.660;2023-02-28T16:10:09;1.60;1.00
42841;DHT22;28491;46.898;7.660;2023-02-28T16:12:37;1.50;1.00
42841;DHT22;28491;46.898;7.660;2023-02-28T16:15:14;1.50;1.00
42841;DHT22;28491;46.898;7.660;2023-02-28T16:17:42;1.30;1.00
42841;DHT22;28491;46.898;7.660;2023-02-28T16:20:16;1.20;1.00
42841;DHT22;28491;46.898;7.660;2023-02-28T16:22:42;1.30;1.00
42841;DHT22;28491;46.898;7.660;2023-02-28T16:25:12;1.20;1.00
42841;DHT22;28491;46.898;7.660;2023-02-28T16:27:38;1.20;1.00
42841;DHT22;28491;46.898;7.660;2023-02-28T16:30:05;1.10;1.00
42841;DHT22;28491;46.898;7.660;2023-02-28T16:32:34;1.00;1.00
42841;DHT22;28491;46.898;7.660;2023-02-28T16:35:00;1.00;1.00
42841;DHT22;28491;46.898;7.660;2023-02-28T16:37:27;0.90;1.00
42841;DHT22;28491;46.898;7.660;2023-02-28T16:39:52;0.90;1.00
42841;DHT22;28491;46.898;7.660;2023-02-28T16:42:24;0.90;1.00
42841;DHT22;28491;46.898;7.660;2023-02-28T16:44:51;1.00;1.00
42841;DHT22;28491;46.898;7.660;2023-02-28T16:47:17;1.10;1.00
42841;DHT22;28491;46.898;7.660;2023-02-28T16:49:42;1.20;1.00
42841;DHT22;28491;46.898;7.660;2023-02-28T16:52:09;1.20;1.00
42841;DHT22;28491;46.898;7.660;2023-02-28T16:54:35;1.20;1.00
42841;DHT22;28491;46.898;7.660;2023-02-28T16:57:00;1.10;1.00
42841;DHT22;28491;46.898;7.660;2023-02-28T16:59:27;1.10;1.00
42841;DHT22;28491;46.898;7.660;2023-02-28T17:01:54;0.80;1.00
42841;DHT22;28491;46.898;7.660;2023-02-28T17:04:22;0.60;1.00
42841;DHT22;28491;46.898;7.660;2023-02-28T17:06:48;0.60;1.00
42841;DHT22;28491;46.898;7.660;2023-02-28T17:09:17;0.80;1.00
42841;DHT22;28491;46.898;7.660;2023-02-28T17:11:43;0.70;1.00
42841;DHT22;28491;46.898;7.660;2023-02-28T17:14:09;0.60;1.00
42841;DHT22;28491;46.898;7.660;2023-02-28T17:16:36;0.50;1.00
42841;DHT22;28491;46.898;7.660;2023-02-28T17:19:06;0.70;1.00
42841;DHT22;28491;46.898;7.660;2023-02-28T17:21:32;0.80;1.00
42841;DHT22;28491;46.898;7.660;2023-02-28T17:23:58;0.70;1.00
42841;DHT22;28491;46.898;7.660;2023-02-28T17:26:24;0.60;1.00
42841;DHT22;28491;46.898;7.660;2023-02-28T17:28:51;0.50;1.00
42841;DHT22;28491;46.898;7.660;2023-02-28T17:31:17;0.40;1.00
42841;DHT22;28491;46.898;7.660;2023-02-28T17:33:43;0.40;1.00
42841;DHT22;28491;46.898;7.660;2023-02-28T17:36:17;0.30;1.00
42841;DHT22;28491;46.898;7.660;2023-02-28T17:38:47;0.40;1.00
42841;DHT22;28491;46.898;7.660;2023-02-28T17:41:13;0.40;1.00
42841;DHT22;28491;46.898;7.660;2023-02-28T17:43:38;0.40;1.00
42841;DHT22;28491;46.898;7.660;2023-02-28T17:46:05;0.40;1.00
42841;DHT22;28491;46.898;7.660;2023-02-28T17:48:31;0.50;1.00
42841;DHT22;28491;46.898;7.660;2023-02-28T17:50:57;0.40;1.00
42841;DHT22;28491;46.898;7.660;2023-02-28T17:53:23;0.30;1.00
42841;DHT22;28491;46.898;7.660;2023-02-28T17:55:49;0.30;1.00
42841;DHT22;28491;46.898;7.660;2023-02-28T17:58:15;0.30;1.00
42841;DHT22;28491;46.898;7.660;2023-02-28T18:00:40;0.30;1.00
42841;DHT22;28491;46.898;7.660;2023-02-28T18:03:06;0.40;1.00
42841;DHT22;28491;46.898;7.660;2023-02-28T18:05:32;0.30;1.00
42841;DHT22;28491;46.898;7.660;2023-02-28T18:07:58;0.20;1.00
42841;DHT22;28491;46.898;7.660;2023-02-28T18:10:23;0.40;1.00